Time;durP1;ratioP1;P1;durP2;ratioP2;P2;SDS_P1;SDS_P2;PMS_P1;PMS_P2;Temp;Humidity;BMP_temperature;BMP_pressure;BME280_temperature;BME280_humidity;BME280_pressure;Samples;Min_cycle;Max_cycle;Signal;HPM_P1;HPM_P2
2022/01/16 00:04:28;;;;;;;16.03;5.70;;;2.80;98.20;;;;;;4965571;28;20472;-72
2022/01/16 00:06:55;;;;;;;1.67;1.40;;;2.80;98.20;;;;;;4978345;28;20484;-72
2022/01/16 00:09:21;;;;;;;1.70;1.60;;;2.80;98.20;;;;;;5001465;28;20465;-72
2022/01/16 00:11:50;;;;;;;1.70;1.57;;;2.80;98.20;;;;;;4987088;28;20483;-72
2022/01/16 00:14:18;;;;;;;1.70;1.53;;;2.80;98.20;;;;;;4981353;28;20535;-72
2022/01/16 00:16:44;;;;;;;1.70;1.40;;;2.80;98.20;;;;;;4981332;28;20488;-72
2022/01/16 00:19:11;;;;;;;1.70;1.40;;;2.80;98.20;;;;;;4992503;28;20822;-72
2022/01/16 00:21:41;;;;;;;1.67;1.40;;;2.80;98.20;;;;;;4973747;28;20498;-72
2022/01/16 00:24:08;;;;;;;1.60;1.40;;;2.80;98.20;;;;;;4999524;28;20561;-72
2022/01/16 00:26:36;;;;;;;1.60;1.30;;;2.80;98.20;;;;;;4994005;28;20542;-72
2022/01/16 00:29:04;;;;;;;1.60;1.37;;;2.80;98.20;;;;;;4999902;28;20528;-72
2022/01/16 00:31:32;;;;;;;1.70;1.50;;;2.80;98.20;;;;;;4977839;28;20561;-72
2022/01/16 00:33:59;;;;;;;1.60;1.40;;;2.80;98.20;;;;;;4987187;28;20476;-72
2022/01/16 00:36:26;;;;;;;1.70;1.40;;;2.80;98.20;;;;;;4977489;28;20483;-72
2022/01/16 00:38:56;;;;;;;1.67;1.40;;;2.90;98.20;;;;;;4999309;28;20472;-72
2022/01/16 00:41:23;;;;;;;1.70;1.50;;;2.90;98.20;;;;;;4989409;28;20554;-72
2022/01/16 00:43:51;;;;;;;1.73;1.63;;;2.90;98.20;;;;;;4996953;28;20492;-73
2022/01/16 00:46:18;;;;;;;1.63;1.40;;;2.80;98.20;;;;;;4973504;28;20491;-72
2022/01/16 00:48:46;;;;;;;1.80;1.70;;;2.90;98.20;;;;;;4983859;28;20556;-72
2022/01/16 00:51:14;;;;;;;1.63;1.40;;;2.80;98.20;;;;;;4980193;28;20460;-73
2022/01/16 00:53:44;;;;;;;2.70;2.50;;;2.80;98.20;;;;;;4980193;28;20484;-73
2022/01/16 00:56:11;;;;;;;1.70;1.60;;;2.90;98.20;;;;;;4982306;28;20527;-72
2022/01/16 00:58:37;;;;;;;1.80;1.70;;;2.90;98.20;;;;;;5006482;28;20469;-72
2022/01/16 01:01:05;;;;;;;1.70;1.60;;;2.90;98.20;;;;;;4975816;28;20835;-72
2022/01/16 01:03:31;;;;;;;1.70;1.50;;;2.90;98.20;;;;;;4991182;28;20497;-73
2022/01/16 01:05:59;;;;;;;1.70;1.50;;;2.90;98.20;;;;;;4978503;28;20490;-72
2022/01/16 01:08:28;;;;;;;1.63;1.30;;;2.90;98.20;;;;;;4997600;28;20838;-72
2022/01/16 01:10:56;;;;;;;1.67;1.40;;;2.90;98.20;;;;;;4978403;28;20874;-73
2022/01/16 01:13:30;;;;;;;1.97;1.77;;;2.90;98.20;;;;;;4992967;28;20849;-72
2022/01/16 01:16:02;;;;;;;1.60;1.40;;;2.90;98.20;;;;;;4968330;28;20674;-72
2022/01/16 01:18:30;;;;;;;1.60;1.40;;;2.90;98.20;;;;;;4999282;28;20501;-72
2022/01/16 01:20:59;;;;;;;1.70;1.50;;;2.90;98.20;;;;;;4967280;28;20465;-72
2022/01/16 01:23:26;;;;;;;1.70;1.47;;;3.00;98.20;;;;;;5015132;28;20954;-73
2022/01/16 01:25:53;;;;;;;1.70;1.50;;;3.00;98.20;;;;;;4971242;28;20492;-72
2022/01/16 01:28:20;;;;;;;1.70;1.60;;;3.00;98.20;;;;;;5017826;28;20487;-73
2022/01/16 01:30:47;;;;;;;1.67;1.40;;;3.00;98.20;;;;;;4973276;28;21022;-73
2022/01/16 01:33:15;;;;;;;1.67;1.40;;;3.00;98.20;;;;;;4990078;28;20491;-72
2022/01/16 01:35:42;;;;;;;1.70;1.40;;;3.00;98.20;;;;;;4971357;28;20462;-72
2022/01/16 01:38:11;;;;;;;1.67;1.40;;;3.00;98.20;;;;;;4997442;28;20490;-72
2022/01/16 01:40:40;;;;;;;1.70;1.57;;;3.00;98.20;;;;;;4982701;28;20468;-73
2022/01/16 01:51:22;;;;;;;1.70;1.50;;;3.00;98.20;;;;;;4977469;28;20497;-73
2022/01/16 01:53:53;;;;;;;1.77;1.67;;;3.10;98.20;;;;;;4995149;28;20478;-72
2022/01/16 01:56:22;;;;;;;1.70;1.50;;;3.10;98.20;;;;;;4982897;28;20524;-72
2022/01/16 01:58:50;;;;;;;1.70;1.50;;;3.10;98.20;;;;;;4998743;28;20572;-73
2022/01/16 02:01:17;;;;;;;1.63;1.40;;;3.10;98.20;;;;;;4976083;28;20517;-73
2022/01/16 02:03:45;;;;;;;1.63;1.40;;;3.10;98.20;;;;;;4998527;28;20660;-73
2022/01/16 02:06:15;;;;;;;1.70;1.60;;;3.10;98.20;;;;;;4972656;28;20525;-70
2022/01/16 02:08:43;;;;;;;1.70;1.50;;;3.10;98.20;;;;;;5005313;28;20982;-70
2022/01/16 02:11:13;;;;;;;1.70;1.50;;;3.10;98.20;;;;;;4982469;28;20539;-71
2022/01/16 02:13:49;;;;;;;1.63;1.40;;;3.10;98.20;;;;;;4994976;28;20493;-72
2022/01/16 02:28:02;;;;;;;1.60;1.30;;;3.10;98.20;;;;;;4993139;28;20527;-70
2022/01/16 02:31:01;;;;;;;1.70;1.43;;;3.10;98.20;;;;;;4986333;28;20463;-71
2022/01/16 02:36:30;;;;;;;1.70;1.57;;;3.00;98.20;;;;;;4983302;28;20486;-71
2022/01/16 02:39:00;;;;;;;2.23;2.03;;;3.10;98.20;;;;;;5000493;28;20496;-70
2022/01/16 02:41:27;;;;;;;1.67;1.40;;;3.10;98.20;;;;;;4981434;28;20493;-71
2022/01/16 02:43:56;;;;;;;1.60;1.40;;;3.10;98.20;;;;;;4992478;28;20482;-71
2022/01/16 02:46:39;;;;;;;1.70;1.60;;;3.10;98.20;;;;;;4970556;28;20574;-71
2022/01/16 02:49:17;;;;;;;1.67;1.43;;;3.00;98.20;;;;;;5004746;28;20469;-70
2022/01/16 02:51:44;;;;;;;1.93;1.70;;;3.00;98.20;;;;;;4977963;28;20559;-70
2022/01/16 02:54:12;;;;;;;1.70;1.40;;;3.10;98.20;;;;;;4990985;28;20486;-70
2022/01/16 02:56:40;;;;;;;1.70;1.40;;;3.00;98.20;;;;;;4982359;28;20487;-71
2022/01/16 02:59:07;;;;;;;1.70;1.53;;;3.10;98.20;;;;;;4991924;28;20461;-71
2022/01/16 03:01:34;;;;;;;1.60;1.40;;;3.10;98.20;;;;;;4982487;28;20591;-70
2022/01/16 03:04:01;;;;;;;1.63;1.40;;;3.10;98.20;;;;;;5000816;28;20496;-70
2022/01/16 03:06:28;;;;;;;1.60;1.40;;;3.10;98.20;;;;;;4980104;28;21021;-70
2022/01/16 03:08:55;;;;;;;1.67;1.40;;;3.10;98.20;;;;;;5001184;28;20954;-70
2022/01/16 03:11:29;;;;;;;1.70;1.40;;;3.10;98.20;;;;;;4986962;28;20802;-71
2022/01/16 03:13:56;;;;;;;1.70;1.57;;;3.10;98.20;;;;;;4991787;28;20496;-71
2022/01/16 03:16:23;;;;;;;1.67;1.40;;;3.10;98.20;;;;;;4980678;28;20486;-71
2022/01/16 03:24:21;;;;;;;1.70;1.40;;;3.10;98.20;;;;;;4984555;28;20515;-71
2022/01/16 03:26:49;;;;;;;1.70;1.40;;;3.20;98.20;;;;;;4987471;28;20520;-70
2022/01/16 03:29:15;;;;;;;1.70;1.53;;;3.20;98.20;;;;;;4989034;28;20466;-73
2022/01/16 03:31:42;;;;;;;1.60;1.40;;;3.20;98.20;;;;;;4974036;28;20628;-73
2022/01/16 03:34:09;;;;;;;1.60;1.37;;;3.20;98.20;;;;;;4985914;28;20501;-73
2022/01/16 03:36:36;;;;;;;1.60;1.40;;;3.20;98.20;;;;;;4980382;28;20925;-73
2022/01/16 03:39:04;;;;;;;1.67;1.40;;;3.10;98.20;;;;;;4999262;28;20461;-73
2022/01/16 03:41:33;;;;;;;1.70;1.40;;;3.10;98.20;;;;;;4978489;28;20700;-73
2022/01/16 03:44:02;;;;;;;1.63;1.40;;;3.10;98.20;;;;;;4979671;28;20482;-73
2022/01/16 03:46:34;;;;;;;1.70;1.50;;;3.20;98.20;;;;;;4977257;28;20520;-73
2022/01/16 03:49:02;;;;;;;1.70;1.40;;;3.20;98.20;;;;;;4993591;28;20501;-73
2022/01/16 03:51:30;;;;;;;1.70;1.50;;;3.20;98.20;;;;;;4972946;28;20487;-73
2022/01/16 03:53:56;;;;;;;1.70;1.40;;;3.20;98.20;;;;;;5002777;28;20485;-74
2022/01/16 03:56:23;;;;;;;1.60;1.40;;;3.20;98.20;;;;;;4977133;28;20486;-73
2022/01/16 03:58:50;;;;;;;1.67;1.40;;;3.20;98.20;;;;;;4987027;28;20844;-73
2022/01/16 04:01:18;;;;;;;1.67;1.40;;;3.20;98.20;;;;;;4967525;28;20495;-73
2022/01/16 04:03:46;;;;;;;1.70;1.40;;;3.20;98.20;;;;;;5004240;28;21197;-73
2022/01/16 04:06:12;;;;;;;1.80;1.60;;;3.20;98.20;;;;;;4971627;28;20537;-73
2022/01/16 04:08:39;;;;;;;1.70;1.40;;;3.20;98.20;;;;;;5004370;28;20477;-73
2022/01/16 04:11:07;;;;;;;1.63;1.40;;;3.20;98.20;;;;;;4980521;28;22470;-73
2022/01/16 04:13:34;;;;;;;1.70;1.40;;;3.20;98.20;;;;;;5007543;28;20493;-73
2022/01/16 04:16:00;;;;;;;1.60;1.40;;;3.20;98.20;;;;;;4979043;28;20462;-73
2022/01/16 04:18:29;;;;;;;1.70;1.40;;;3.20;98.20;;;;;;5004709;28;20473;-73
2022/01/16 04:20:57;;;;;;;1.70;1.47;;;3.20;98.20;;;;;;4962823;28;20841;-73
2022/01/16 04:23:24;;;;;;;1.67;1.47;;;3.20;98.20;;;;;;4998253;28;20477;-73
2022/01/16 04:25:50;;;;;;;1.67;1.40;;;3.20;98.20;;;;;;4977549;28;20466;-73
2022/01/16 04:28:23;;;;;;;1.70;1.40;;;3.20;98.20;;;;;;5011714;28;20473;-73
2022/01/16 04:30:50;;;;;;;1.70;1.40;;;3.20;98.20;;;;;;4973937;28;20481;-73
2022/01/16 04:33:16;;;;;;;1.70;1.40;;;3.20;98.20;;;;;;4994434;28;20478;-73
2022/01/16 04:35:44;;;;;;;1.67;1.43;;;3.30;98.20;;;;;;4971675;28;20477;-73
2022/01/16 04:38:11;;;;;;;1.70;1.50;;;3.20;98.20;;;;;;4997083;28;20501;-73
2022/01/16 04:40:44;;;;;;;1.70;1.40;;;3.20;98.20;;;;;;4986060;28;20976;-73
2022/01/16 04:45:59;;;;;;;1.63;1.40;;;3.20;98.20;;;;;;4979697;28;20841;-73
2022/01/16 04:48:26;;;;;;;4.13;3.93;;;3.20;98.20;;;;;;5007024;28;20501;-73
2022/01/16 04:50:54;;;;;;;1.70;1.50;;;3.20;98.20;;;;;;4968129;28;20474;-73
2022/01/16 04:53:21;;;;;;;1.70;1.40;;;3.20;98.20;;;;;;4994862;28;20492;-73
2022/01/16 04:55:49;;;;;;;1.70;1.40;;;3.20;98.20;;;;;;4970703;28;20476;-73
2022/01/16 04:58:18;;;;;;;1.60;1.30;;;3.20;98.20;;;;;;4996538;28;20470;-73
2022/01/16 05:00:44;;;;;;;1.63;1.40;;;3.20;98.20;;;;;;4980617;28;20469;-73
2022/01/16 05:03:11;;;;;;;1.67;1.40;;;3.20;98.20;;;;;;4982175;28;20862;-73
2022/01/16 05:05:38;;;;;;;3.40;3.20;;;3.20;98.20;;;;;;4978012;28;20461;-73
2022/01/16 05:08:06;;;;;;;1.70;1.60;;;3.20;98.20;;;;;;4997203;28;20479;-73
2022/01/16 05:10:33;;;;;;;1.70;1.40;;;3.20;98.20;;;;;;4986125;28;20464;-73
2022/01/16 05:13:26;;;;;;;1.90;1.70;;;3.20;98.20;;;;;;4987614;28;20481;-73
2022/01/16 05:18:31;;;;;;;1.70;1.50;;;3.20;98.20;;;;;;5006466;28;20468;-73
2022/01/16 05:20:57;;;;;;;1.67;1.40;;;3.20;98.20;;;;;;4974798;28;20462;-73
2022/01/16 05:23:26;;;;;;;1.70;1.40;;;3.20;98.20;;;;;;4997497;28;20484;-73
2022/01/16 05:25:53;;;;;;;1.70;1.50;;;3.30;98.20;;;;;;4974732;28;20462;-73
2022/01/16 05:28:20;;;;;;;1.70;1.47;;;3.30;98.20;;;;;;5001142;28;21010;-73
2022/01/16 05:30:47;;;;;;;1.70;1.50;;;3.30;98.20;;;;;;4976527;28;20486;-73
2022/01/16 05:33:14;;;;;;;1.67;1.40;;;3.30;98.20;;;;;;4998180;28;20492;-73
2022/01/16 05:35:41;;;;;;;1.70;1.53;;;3.30;98.20;;;;;;4972234;28;20477;-73
2022/01/16 05:38:08;;;;;;;1.67;1.30;;;3.30;98.20;;;;;;5001704;28;20511;-73
2022/01/16 05:40:37;;;;;;;1.60;1.40;;;3.30;98.20;;;;;;4991295;28;20489;-73
2022/01/16 05:43:04;;;;;;;1.70;1.40;;;3.30;98.20;;;;;;4988484;28;20520;-73
2022/01/16 05:45:31;;;;;;;1.77;1.67;;;3.30;98.20;;;;;;4980544;28;20480;-73
2022/01/16 05:47:58;;;;;;;1.67;1.40;;;3.30;98.20;;;;;;4979940;28;20484;-73
2022/01/16 05:50:25;;;;;;;1.67;1.40;;;3.30;98.20;;;;;;4972784;28;20465;-73
2022/01/16 05:52:52;;;;;;;1.63;1.40;;;3.30;98.20;;;;;;4981853;28;20650;-73
2022/01/16 05:55:20;;;;;;;1.70;1.40;;;3.30;98.20;;;;;;4979198;28;20854;-73
2022/01/16 05:57:48;;;;;;;1.60;1.40;;;3.30;98.20;;;;;;4988287;28;20848;-73
2022/01/16 06:00:15;;;;;;;1.67;1.40;;;3.30;98.20;;;;;;4971441;28;20466;-73
2022/01/16 06:02:42;;;;;;;1.70;1.40;;;3.30;98.20;;;;;;4982035;28;20489;-73
2022/01/16 06:05:11;;;;;;;2.57;2.37;;;3.30;98.20;;;;;;4982036;28;20473;-73
2022/01/16 06:07:40;;;;;;;1.67;1.40;;;3.30;98.20;;;;;;4980295;28;20479;-73
2022/01/16 06:10:07;;;;;;;1.70;1.43;;;3.30;98.20;;;;;;4983413;28;20621;-73
2022/01/16 06:12:34;;;;;;;1.70;1.60;;;3.30;98.20;;;;;;4998482;28;20495;-73
2022/01/16 06:15:04;;;;;;;1.70;1.50;;;3.30;98.20;;;;;;4981394;28;20507;-71
2022/01/16 06:17:31;;;;;;;1.70;1.50;;;3.30;98.20;;;;;;4998657;28;20486;-70
2022/01/16 06:19:58;;;;;;;1.70;1.43;;;3.30;98.20;;;;;;4980411;28;20470;-70
2022/01/16 06:22:25;;;;;;;1.70;1.50;;;3.30;98.20;;;;;;4998940;28;20490;-70
2022/01/16 06:24:51;;;;;;;1.60;1.40;;;3.30;98.20;;;;;;4981730;28;20473;-70
2022/01/16 06:27:18;;;;;;;1.63;1.30;;;3.30;98.20;;;;;;4996449;28;20475;-71
2022/01/16 06:29:45;;;;;;;1.70;1.60;;;3.30;98.20;;;;;;4982590;28;20469;-70
2022/01/16 06:32:13;;;;;;;2.03;1.83;;;3.30;98.20;;;;;;4979281;28;20491;-70
2022/01/16 06:34:40;;;;;;;1.70;1.40;;;3.30;98.20;;;;;;4982426;28;20958;-70
2022/01/16 06:37:06;;;;;;;1.63;1.30;;;3.30;98.20;;;;;;4985689;28;20489;-70
2022/01/16 06:39:34;;;;;;;1.67;1.40;;;3.30;98.20;;;;;;4991523;28;20511;-70
2022/01/16 06:42:01;;;;;;;18.60;14.80;;;3.30;98.20;;;;;;4993272;28;20562;-71
2022/01/16 06:44:27;;;;;;;1.70;1.50;;;3.30;98.20;;;;;;4981818;28;20493;-70
2022/01/16 06:46:54;;;;;;;1.67;1.40;;;3.30;98.20;;;;;;4980100;28;20479;-70
2022/01/16 06:49:22;;;;;;;1.70;1.50;;;3.40;98.20;;;;;;4985469;28;20564;-70
2022/01/16 06:51:50;;;;;;;1.70;1.43;;;3.40;98.20;;;;;;4978033;28;20902;-70
2022/01/16 06:56:42;;;;;;;1.70;1.50;;;3.40;98.20;;;;;;5019038;23;21016;-77
2022/01/16 06:59:09;;;;;;;1.70;1.50;;;3.40;98.20;;;;;;5010259;28;20220;-77
2022/01/16 07:01:36;;;;;;;1.70;1.40;;;3.40;98.20;;;;;;5008512;28;20494;-77
2022/01/16 07:04:03;;;;;;;1.70;1.50;;;3.40;98.20;;;;;;5015696;28;20464;-76
2022/01/16 07:06:31;;;;;;;1.70;1.40;;;3.40;98.20;;;;;;4974526;28;21241;-77
2022/01/16 07:08:58;;;;;;;1.67;1.40;;;3.40;98.20;;;;;;4997831;28;20585;-79
2022/01/16 07:11:25;;;;;;;1.70;1.50;;;3.40;98.20;;;;;;4982418;28;20495;-76
2022/01/16 07:13:52;;;;;;;1.67;1.40;;;3.40;98.20;;;;;;4982544;28;20829;-76
2022/01/16 07:16:18;;;;;;;1.70;1.40;;;3.40;98.20;;;;;;4968695;28;20488;-77
2022/01/16 07:18:45;;;;;;;1.60;1.40;;;3.40;98.20;;;;;;4985522;28;20458;-77
2022/01/16 07:21:14;;;;;;;1.60;1.40;;;3.40;98.20;;;;;;4969125;28;20509;-73
2022/01/16 07:23:43;;;;;;;1.60;1.40;;;3.40;98.20;;;;;;4979344;28;20528;-77
2022/01/16 07:26:10;;;;;;;1.73;1.63;;;3.50;98.20;;;;;;4980889;28;20839;-77
2022/01/16 07:28:37;;;;;;;1.70;1.40;;;3.50;98.20;;;;;;4987188;28;20488;-77
2022/01/16 07:31:04;;;;;;;1.67;1.33;;;3.50;98.20;;;;;;4969807;28;20556;-76
2022/01/16 07:33:31;;;;;;;1.70;1.50;;;3.50;98.20;;;;;;4995000;28;20995;-78
2022/01/16 07:35:58;;;;;;;1.70;1.40;;;3.50;98.20;;;;;;4975026;28;20496;-78
2022/01/16 07:38:25;;;;;;;1.70;1.53;;;3.50;98.20;;;;;;4989657;28;20469;-78
2022/01/16 07:40:53;;;;;;;1.70;1.60;;;3.50;98.20;;;;;;4976210;28;20458;-74
2022/01/16 07:43:20;;;;;;;1.70;1.40;;;3.50;98.20;;;;;;4985899;28;20468;-77
2022/01/16 07:45:46;;;;;;;1.67;1.40;;;3.50;98.20;;;;;;4970844;28;20482;-75
2022/01/16 07:48:13;;;;;;;1.70;1.60;;;3.60;98.20;;;;;;4973065;28;20515;-76
2022/01/16 07:50:41;;;;;;;1.60;1.30;;;3.60;98.20;;;;;;4979137;28;20497;-74
2022/01/16 07:53:08;;;;;;;1.70;1.40;;;3.60;98.20;;;;;;4973616;28;20516;-75
2022/01/16 07:55:36;;;;;;;1.70;1.50;;;3.60;98.20;;;;;;4984247;28;20527;-76
2022/01/16 07:58:04;;;;;;;1.70;1.40;;;3.60;98.20;;;;;;4980410;28;20477;-75
2022/01/16 08:00:32;;;;;;;1.67;1.43;;;3.60;98.20;;;;;;4981364;28;20472;-76
2022/01/16 08:02:59;;;;;;;1.63;1.40;;;3.70;98.20;;;;;;4981704;28;20481;-77
2022/01/16 08:05:26;;;;;;;1.70;1.50;;;3.70;98.20;;;;;;4981764;28;20485;-75
2022/01/16 08:07:53;;;;;;;1.60;1.40;;;3.70;98.20;;;;;;4981888;28;21048;-76
2022/01/16 08:10:19;;;;;;;1.70;1.40;;;3.70;98.20;;;;;;4988630;28;20547;-77
2022/01/16 08:12:46;;;;;;;1.70;1.40;;;3.80;98.20;;;;;;4985651;28;20488;-76
2022/01/16 08:15:15;;;;;;;1.67;1.40;;;3.80;98.20;;;;;;4982363;28;20884;-75
2022/01/16 08:17:41;;;;;;;1.60;1.30;;;3.80;98.20;;;;;;4989639;28;20477;-76
2022/01/16 08:20:10;;;;;;;1.70;1.47;;;3.90;98.20;;;;;;4983615;28;20755;-76
2022/01/16 08:22:38;;;;;;;1.90;1.70;;;3.90;98.20;;;;;;4974822;28;20487;-76
2022/01/16 08:25:06;;;;;;;1.63;1.40;;;3.90;98.20;;;;;;4986137;28;20638;-76
2022/01/16 08:27:34;;;;;;;1.70;1.40;;;3.90;98.20;;;;;;4990047;28;20577;-75
2022/01/16 08:30:00;;;;;;;1.97;1.77;;;4.00;98.20;;;;;;4989861;28;20469;-76
2022/01/16 08:32:29;;;;;;;1.67;1.37;;;4.00;98.20;;;;;;4979347;28;20985;-77
2022/01/16 08:34:55;;;;;;;1.63;1.40;;;4.00;98.20;;;;;;4982164;28;20528;-78
2022/01/16 08:37:22;;;;;;;1.67;1.30;;;4.10;98.20;;;;;;4978716;28;20473;-77
2022/01/16 08:39:50;;;;;;;1.63;1.30;;;4.10;98.20;;;;;;4989983;28;20457;-77
2022/01/16 08:42:16;;;;;;;1.70;1.60;;;4.10;98.20;;;;;;4987894;28;20502;-79
2022/01/16 08:44:43;;;;;;;1.70;1.50;;;4.10;98.20;;;;;;4986424;28;20492;-75
2022/01/16 08:47:11;;;;;;;1.70;1.40;;;4.10;98.20;;;;;;4973240;28;20585;-74
2022/01/16 08:49:39;;;;;;;1.70;1.40;;;4.10;98.20;;;;;;4984298;28;20630;-77
2022/01/16 08:52:06;;;;;;;1.70;1.40;;;4.20;98.20;;;;;;4972420;28;20876;-79
2022/01/16 08:54:34;;;;;;;1.67;1.30;;;4.20;98.20;;;;;;4980282;28;20469;-76
2022/01/16 08:57:01;;;;;;;1.70;1.60;;;4.20;98.20;;;;;;4985327;28;20543;-74
2022/01/16 08:59:29;;;;;;;1.63;1.30;;;4.30;98.20;;;;;;4988799;28;20744;-74
2022/01/16 09:01:56;;;;;;;1.63;1.33;;;4.30;98.20;;;;;;4976086;28;20529;-75
2022/01/16 09:04:23;;;;;;;1.63;1.30;;;4.30;98.20;;;;;;4990205;28;20471;-76
2022/01/16 09:06:51;;;;;;;1.70;1.40;;;4.30;98.20;;;;;;4980494;28;20482;-75
2022/01/16 09:09:18;;;;;;;1.70;1.43;;;4.30;98.20;;;;;;4989391;28;20873;-76
2022/01/16 09:11:45;;;;;;;1.80;1.50;;;4.30;98.20;;;;;;4978063;28;20568;-75
2022/01/16 09:14:11;;;;;;;1.67;1.30;;;4.40;98.20;;;;;;4987693;28;20961;-74
2022/01/16 09:16:40;;;;;;;1.60;1.30;;;4.40;98.20;;;;;;4977011;28;21024;-75
2022/01/16 09:19:07;;;;;;;1.70;1.50;;;4.40;98.20;;;;;;4985555;28;20465;-76
2022/01/16 09:21:35;;;;;;;2.50;2.17;;;4.40;98.20;;;;;;4972963;28;20496;-77
2022/01/16 09:24:03;;;;;;;1.63;1.30;;;4.40;98.20;;;;;;4984989;28;20498;-76
2022/01/16 09:26:30;;;;;;;1.70;1.47;;;4.40;98.20;;;;;;4974394;28;20488;-76
2022/01/16 09:28:57;;;;;;;1.70;1.40;;;4.50;98.20;;;;;;4983136;28;20489;-75
2022/01/16 09:31:25;;;;;;;1.70;1.40;;;4.50;98.20;;;;;;4969829;28;20485;-76
2022/01/16 09:33:51;;;;;;;1.60;1.30;;;4.50;98.20;;;;;;4975352;28;20557;-75
2022/01/16 09:36:18;;;;;;;1.70;1.40;;;4.60;98.20;;;;;;4976351;28;20492;-76
2022/01/16 09:38:45;;;;;;;1.87;1.70;;;4.60;98.20;;;;;;4995004;28;20954;-76
2022/01/16 09:41:13;;;;;;;1.70;1.40;;;4.60;98.20;;;;;;4977138;28;20500;-76
2022/01/16 09:43:41;;;;;;;2.80;2.60;;;4.70;98.20;;;;;;4983769;28;20465;-78
2022/01/16 09:46:08;;;;;;;2.23;2.00;;;4.70;98.20;;;;;;4969711;28;21613;-76
2022/01/16 09:48:37;;;;;;;2.00;1.80;;;4.70;98.20;;;;;;4972463;28;21084;-77
2022/01/16 09:51:04;;;;;;;2.03;1.83;;;4.80;98.20;;;;;;4968253;28;20864;-77
2022/01/16 09:53:31;;;;;;;1.70;1.53;;;4.80;98.20;;;;;;4978979;28;20585;-77
2022/01/16 09:55:58;;;;;;;1.60;1.30;;;4.80;98.20;;;;;;4970679;28;20499;-78
2022/01/16 09:58:26;;;;;;;1.67;1.30;;;4.90;98.20;;;;;;4991946;28;20466;-75
2022/01/16 10:00:55;;;;;;;1.63;1.30;;;4.90;98.20;;;;;;4966713;28;20553;-78
2022/01/16 10:03:36;;;;;;;1.63;1.30;;;4.90;98.20;;;;;;4972539;28;20461;-75
2022/01/16 10:06:10;;;;;;;1.63;1.30;;;5.00;98.20;;;;;;4968128;28;20500;-78
2022/01/16 10:08:39;;;;;;;2.13;1.93;;;5.00;98.20;;;;;;4982733;28;20539;-76
2022/01/16 10:11:25;;;;;;;1.67;1.30;;;5.10;98.20;;;;;;4982064;28;20472;-78
2022/01/16 10:14:01;;;;;;;1.70;1.40;;;5.10;98.20;;;;;;4981822;28;20473;-75
2022/01/16 10:16:30;;;;;;;1.70;1.30;;;5.20;98.20;;;;;;4976973;28;20507;-76
2022/01/16 10:18:57;;;;;;;1.63;1.30;;;5.20;98.20;;;;;;4975131;28;20580;-77
2022/01/16 10:21:41;;;;;;;1.70;1.30;;;5.20;98.20;;;;;;4970633;28;20506;-75
2022/01/16 10:24:20;;;;;;;1.60;1.20;;;5.20;98.20;;;;;;4984959;28;20464;-76
2022/01/16 10:26:48;;;;;;;1.60;1.30;;;5.30;98.20;;;;;;4979578;28;20515;-81
2022/01/16 10:29:18;;;;;;;1.60;1.30;;;5.30;98.20;;;;;;4991530;28;20493;-74
2022/01/16 10:31:46;;;;;;;1.60;1.30;;;5.30;98.20;;;;;;4971395;28;20493;-76
2022/01/16 10:34:28;;;;;;;1.60;1.20;;;5.30;98.20;;;;;;4987756;28;20468;-76
2022/01/16 10:36:55;;;;;;;1.60;1.30;;;5.40;98.20;;;;;;4980784;28;20499;-74
2022/01/16 10:39:22;;;;;;;1.63;1.30;;;5.40;98.20;;;;;;4991097;28;20463;-76
2022/01/16 10:42:15;;;;;;;1.63;1.30;;;5.40;98.20;;;;;;4973005;28;20490;-76
2022/01/16 10:44:45;;;;;;;1.70;1.50;;;5.40;98.20;;;;;;4985395;28;20485;-77
2022/01/16 10:47:27;;;;;;;1.67;1.30;;;5.50;98.20;;;;;;4982709;28;21084;-75
2022/01/16 10:50:18;;;;;;;1.70;1.40;;;5.50;98.20;;;;;;4992814;28;20487;-77
2022/01/16 10:52:54;;;;;;;1.67;1.30;;;5.50;98.20;;;;;;4985347;28;20560;-75
2022/01/16 10:55:24;;;;;;;1.63;1.33;;;5.50;98.20;;;;;;4980962;28;21128;-78
2022/01/16 10:57:51;;;;;;;1.70;1.40;;;5.50;98.20;;;;;;4986107;28;20485;-76
2022/01/16 11:00:22;;;;;;;1.67;1.30;;;5.50;98.20;;;;;;4985549;28;20493;-75
2022/01/16 11:02:51;;;;;;;1.70;1.30;;;5.50;98.20;;;;;;4970822;28;20494;-74
2022/01/16 11:05:20;;;;;;;1.70;1.40;;;5.50;98.20;;;;;;4975043;28;20872;-74
2022/01/16 11:07:47;;;;;;;1.70;1.40;;;5.60;98.20;;;;;;4987224;28;20485;-74
2022/01/16 11:10:27;;;;;;;1.70;1.30;;;5.60;98.20;;;;;;4986448;28;20462;-76
2022/01/16 11:12:55;;;;;;;2.00;1.80;;;5.60;98.20;;;;;;4977784;28;20521;-75
2022/01/16 11:15:24;;;;;;;1.70;1.40;;;5.60;98.20;;;;;;4975249;28;20481;-75
2022/01/16 11:17:51;;;;;;;1.70;1.40;;;5.60;98.20;;;;;;4969232;28;21034;-74
2022/01/16 11:20:26;;;;;;;1.63;1.30;;;5.60;98.20;;;;;;4979475;28;20604;-72
2022/01/16 11:22:59;;;;;;;1.70;1.40;;;5.60;98.20;;;;;;4984482;28;21032;-72
2022/01/16 11:25:33;;;;;;;1.70;1.40;;;5.70;98.20;;;;;;4989729;28;20967;-72
2022/01/16 11:28:03;;;;;;;1.63;1.30;;;5.70;98.20;;;;;;4977058;28;20961;-72
2022/01/16 11:30:33;;;;;;;1.70;1.40;;;5.70;98.20;;;;;;4981659;28;20524;-74
2022/01/16 11:33:01;;;;;;;1.63;1.30;;;5.80;98.20;;;;;;4970786;28;20484;-74
2022/01/16 11:35:29;;;;;;;1.70;1.30;;;5.80;98.20;;;;;;4976631;28;20858;-74
2022/01/16 11:37:57;;;;;;;1.70;1.50;;;5.80;98.20;;;;;;4979943;28;21051;-74
2022/01/16 11:40:30;;;;;;;1.70;1.30;;;5.80;98.20;;;;;;4982194;28;20469;-72
2022/01/16 11:43:23;;;;;;;1.67;1.30;;;5.90;98.20;;;;;;4983296;28;20532;-74
2022/01/16 11:45:53;;;;;;;1.70;1.27;;;6.00;98.20;;;;;;4971619;28;20930;-74
2022/01/16 11:48:37;;;;;;;1.70;1.40;;;6.00;98.20;;;;;;4988462;28;20462;-74
2022/01/16 11:51:05;;;;;;;2.00;1.80;;;6.10;98.20;;;;;;4969443;28;20465;-74
2022/01/16 11:54:04;;;;;;;1.63;1.30;;;6.20;98.20;;;;;;4991101;28;20847;-73
2022/01/16 11:56:50;;;;;;;1.60;1.30;;;6.20;98.20;;;;;;4967020;28;20608;-74
2022/01/16 11:59:19;;;;;;;1.60;1.30;;;6.40;98.20;;;;;;4979238;28;20461;-73
2022/01/16 12:01:51;;;;;;;1.80;1.40;;;6.50;98.20;;;;;;4980835;28;20492;-75
2022/01/16 12:04:50;;;;;;;1.83;1.60;;;6.50;98.20;;;;;;4990188;28;20560;-77
2022/01/16 12:07:46;;;;;;;1.70;1.40;;;6.60;98.20;;;;;;4967485;28;20561;-74
2022/01/16 12:10:35;;;;;;;1.70;1.40;;;6.60;98.20;;;;;;4985539;28;20562;-74
2022/01/16 12:13:02;;;;;;;2.17;1.97;;;6.60;98.20;;;;;;4981853;28;20587;-77
2022/01/16 12:15:32;;;;;;;2.37;2.17;;;6.60;98.20;;;;;;4980498;28;20506;-79
2022/01/16 12:18:01;;;;;;;1.70;1.40;;;6.60;98.20;;;;;;4990556;28;20498;-75
2022/01/16 12:20:30;;;;;;;1.70;1.30;;;6.50;98.20;;;;;;4981861;28;20464;-75
2022/01/16 12:22:59;;;;;;;1.70;1.30;;;6.50;98.20;;;;;;4990044;28;20573;-76
2022/01/16 12:25:29;;;;;;;2.63;2.30;;;6.40;98.20;;;;;;4983056;28;20497;-74
2022/01/16 12:27:57;;;;;;;2.00;1.80;;;6.40;98.20;;;;;;4995272;28;20519;-75
2022/01/16 12:30:48;;;;;;;1.70;1.33;;;6.40;98.20;;;;;;4985310;28;20583;-75
2022/01/16 12:33:26;;;;;;;1.60;1.30;;;6.40;98.20;;;;;;4970604;28;20552;-76
2022/01/16 12:36:14;;;;;;;2.03;1.83;;;6.40;98.20;;;;;;4970829;28;20967;-72
2022/01/16 12:38:45;;;;;;;1.80;1.60;;;6.40;98.20;;;;;;4988644;28;20855;-73
2022/01/16 12:41:14;;;;;;;1.63;1.20;;;6.40;98.20;;;;;;4977815;28;20484;-73
2022/01/16 12:43:47;;;;;;;2.90;2.70;;;6.40;98.20;;;;;;4982063;28;20465;-73
2022/01/16 12:46:16;;;;;;;1.70;1.50;;;6.40;98.20;;;;;;4976408;28;20533;-73
2022/01/16 12:48:46;;;;;;;1.70;1.40;;;6.40;98.20;;;;;;4994618;28;20584;-72
2022/01/16 12:51:16;;;;;;;1.70;1.30;;;6.40;98.20;;;;;;4973302;28;20480;-72
2022/01/16 12:53:45;;;;;;;1.63;1.30;;;6.50;98.20;;;;;;4987708;28;20477;-73
2022/01/16 12:56:17;;;;;;;1.70;1.33;;;6.40;98.20;;;;;;4971192;28;20545;-73
2022/01/16 12:58:44;;;;;;;1.70;1.30;;;6.40;98.20;;;;;;4992470;28;20546;-73
2022/01/16 13:01:42;;;;;;;1.70;1.40;;;6.40;98.20;;;;;;4985888;28;20469;-75
2022/01/16 13:04:18;;;;;;;2.37;2.17;;;6.30;98.20;;;;;;4988848;28;20488;-74
2022/01/16 13:06:45;;;;;;;1.70;1.53;;;6.30;98.20;;;;;;4977771;28;20562;-73
2022/01/16 13:09:13;;;;;;;1.70;1.53;;;6.30;98.20;;;;;;4988285;28;20501;-74
2022/01/16 13:11:42;;;;;;;1.70;1.30;;;6.30;98.20;;;;;;4981757;28;20495;-73
2022/01/16 13:14:12;;;;;;;1.70;1.30;;;6.30;98.20;;;;;;4987743;28;20883;-74
2022/01/16 13:16:40;;;;;;;1.67;1.33;;;6.30;98.20;;;;;;4979193;28;21003;-73
2022/01/16 13:19:14;;;;;;;1.60;1.20;;;6.30;98.20;;;;;;4990481;28;20564;-73
2022/01/16 13:22:04;;;;;;;1.63;1.30;;;6.30;98.20;;;;;;4980031;28;21043;-73
2022/01/16 13:24:34;;;;;;;1.70;1.40;;;6.30;98.20;;;;;;4987204;28;20468;-73
2022/01/16 13:27:04;;;;;;;1.63;1.30;;;6.30;98.20;;;;;;4982579;28;20578;-72
2022/01/16 13:29:32;;;;;;;1.60;1.30;;;6.40;98.20;;;;;;4989065;28;20519;-73
2022/01/16 13:32:03;;;;;;;1.93;1.73;;;6.40;98.20;;;;;;4976261;28;20537;-73
2022/01/16 13:34:42;;;;;;;1.70;1.37;;;6.40;98.20;;;;;;4979548;28;20463;-73
2022/01/16 13:37:14;;;;;;;1.67;1.30;;;6.40;98.20;;;;;;4978136;28;20500;-73
2022/01/16 13:39:44;;;;;;;1.67;1.27;;;6.40;98.20;;;;;;4982882;28;20465;-73
2022/01/16 13:42:50;;;;;;;1.63;1.30;;;6.40;98.20;;;;;;4984461;28;20571;-76
2022/01/16 13:45:20;;;;;;;1.70;1.40;;;6.40;98.20;;;;;;4983252;28;20485;-74
2022/01/16 13:47:57;;;;;;;1.63;1.20;;;6.50;98.20;;;;;;4967723;28;20483;-77
2022/01/16 13:50:29;;;;;;;1.60;1.20;;;6.50;98.20;;;;;;4984536;28;20525;-75